Time;durP1;ratioP1;P1;durP2;ratioP2;P2;SDS_P1;SDS_P2;PMS_P1;PMS_P2;Temp;Humidity;BMP_temperature;BMP_pressure;BME280_temperature;BME280_humidity;BME280_pressure;Samples;Min_cycle;Max_cycle;Signal;HPM_P1;HPM_P2
2022/01/24 00:00:59;;;;;;;41.63;27.48;;;;;;;4.88;81.18;103337.66;5028586;28;20039;-73
2022/01/24 00:03:25;;;;;;;41.08;25.98;;;;;;;4.87;79.32;103329.66;5036999;28;20029;-73
2022/01/24 00:05:50;;;;;;;39.30;26.60;;;;;;;4.86;78.89;103325.22;5029373;28;20029;-73
2022/01/24 00:08:16;;;;;;;42.40;25.20;;;;;;;4.84;78.24;103325.25;5038802;28;20029;-73
2022/01/24 00:10:41;;;;;;;39.15;24.83;;;;;;;4.82;78.36;103324.38;5026748;28;20044;-73
2022/01/24 00:16:00;;;;;;;37.75;24.48;;;;;;;4.83;77.97;103328.81;5028405;28;20052;-73
2022/01/24 00:29:06;;;;;;;33.90;20.00;;;;;;;4.80;75.94;103320.88;5028393;28;20175;-73
2022/01/24 00:31:31;;;;;;;33.78;21.08;;;;;;;4.81;77.14;103321.75;5028024;28;20184;-73
2022/01/24 00:33:56;;;;;;;35.17;19.67;;;;;;;4.81;76.16;103319.06;5026721;28;20029;-73
2022/01/24 00:36:21;;;;;;;36.80;21.67;;;;;;;4.79;76.23;103321.75;5025052;28;20518;-73
2022/01/24 00:38:47;;;;;;;37.22;22.90;;;;;;;4.78;76.97;103311.97;5027579;28;20018;-73
2022/01/24 00:41:15;;;;;;;37.00;22.45;;;;;;;4.79;76.78;103316.44;5029157;28;20045;-73
2022/01/24 00:44:11;;;;;;;36.60;22.10;;;;;;;4.77;76.16;103315.53;5026577;28;20034;-73
2022/01/24 00:46:45;;;;;;;33.70;19.85;;;;;;;4.74;75.89;103304.91;5027221;28;20045;-73
2022/01/24 00:49:38;;;;;;;36.47;20.75;;;;;;;4.74;75.79;103307.56;5028532;28;20144;-73
2022/01/24 00:54:53;;;;;;;32.13;18.85;;;;;;;4.71;76.49;103311.19;5008200;28;20132;-73
2022/01/24 00:57:19;;;;;;;32.33;20.42;;;;;;;4.75;75.65;103321.81;5023836;28;20091;-73
2022/01/24 00:59:46;;;;;;;34.72;20.70;;;;;;;4.74;76.59;103318.22;5025553;28;20052;-73
2022/01/24 01:02:12;;;;;;;35.97;20.40;;;;;;;4.72;75.91;103318.25;5037886;28;20473;-73
2022/01/24 01:07:11;;;;;;;35.92;21.92;;;;;;;4.73;75.98;103316.50;5041856;28;20401;-73
2022/01/24 01:18:14;;;;;;;33.67;20.52;;;;;;;4.71;77.13;103307.63;5027736;28;20044;-73
2022/01/24 01:21:23;;;;;;;38.05;21.23;;;;;;;4.70;76.77;103305.84;5027401;28;20113;-73
2022/01/24 01:23:31;;;;;;;37.42;21.75;;;;;;;4.69;76.80;103302.28;5026088;28;20037;-73
2022/01/24 01:25:58;;;;;;;38.30;23.50;;;;;;;4.70;76.42;103297.84;5027899;28;20370;-73
2022/01/24 01:28:25;;;;;;;39.30;20.98;;;;;;;4.71;76.29;103300.53;5028213;28;20025;-74
2022/01/24 01:30:54;;;;;;;32.92;18.95;;;;;;;4.72;75.63;103298.72;5031394;28;20029;-72
2022/01/24 01:33:31;;;;;;;35.57;19.83;;;;;;;4.70;76.30;103297.84;5039295;28;20117;-72
2022/01/24 01:38:59;;;;;;;37.88;22.13;;;;;;;4.71;76.76;103299.63;5038869;28;20080;-73
2022/01/24 01:55:38;;;;;;;34.58;21.08;;;;;;;4.69;76.50;103304.09;5051360;28;20376;-73
2022/01/24 01:58:08;;;;;;;32.78;18.83;;;;;;;4.69;76.18;103298.75;5028769;28;20025;-73
2022/01/24 02:00:37;;;;;;;32.22;19.65;;;;;;;4.68;76.22;103300.53;5030304;28;20025;-73
2022/01/24 02:03:02;;;;;;;32.45;18.83;;;;;;;4.69;76.06;103304.97;5034065;28;20033;-73
2022/01/24 02:05:28;;;;;;;31.13;18.08;;;;;;;4.69;76.12;103298.75;5028580;28;20478;-74
2022/01/24 02:07:53;;;;;;;30.15;17.80;;;;;;;4.68;76.33;103304.97;5030016;28;20393;-74
2022/01/24 02:10:20;;;;;;;31.05;17.30;;;;;;;4.66;76.22;103306.78;5029552;28;20086;-73
2022/01/24 02:12:48;;;;;;;33.47;20.35;;;;;;;4.67;75.84;103305.88;5030636;28;20661;-73
2022/01/24 02:15:18;;;;;;;32.08;18.70;;;;;;;4.65;75.46;103291.69;5031635;28;20375;-73
2022/01/24 02:20:37;;;;;;;32.15;18.23;;;;;;;4.65;75.04;103287.22;5039652;28;20693;-73
2022/01/24 02:25:42;;;;;;;36.95;21.08;;;;;;;4.64;75.28;103287.25;5030068;28;20162;-73
2022/01/24 02:28:10;;;;;;;36.35;21.10;;;;;;;4.61;75.91;103287.28;5036894;28;20029;-73
2022/01/24 02:30:51;;;;;;;32.47;18.80;;;;;;;4.63;75.83;103282.84;5043107;28;20025;-73
2022/01/24 02:33:17;;;;;;;33.65;19.75;;;;;;;4.60;76.34;103288.16;5029027;28;20429;-72
2022/01/24 02:35:43;;;;;;;34.65;20.17;;;;;;;4.60;75.07;103285.50;5030435;28;20037;-72
2022/01/24 02:38:22;;;;;;;31.45;19.73;;;;;;;4.59;75.67;103289.09;5029979;28;20032;-72
2022/01/24 02:46:01;;;;;;;32.90;19.15;;;;;;;4.58;75.36;103284.66;5028534;28;20033;-72
2022/01/24 02:49:08;;;;;;;37.67;21.67;;;;;;;4.56;76.22;103271.34;5030664;28;20115;-73
2022/01/24 02:51:46;;;;;;;35.28;19.48;;;;;;;4.55;75.99;103273.13;5026909;28;20029;-73
2022/01/24 02:54:25;;;;;;;36.17;20.88;;;;;;;4.56;75.99;103271.34;5031431;28;20033;-73
2022/01/24 02:56:51;;;;;;;31.38;18.98;;;;;;;4.54;75.90;103275.81;5045675;28;20059;-73
2022/01/24 02:59:16;;;;;;;34.65;21.92;;;;;;;4.53;75.57;103276.72;5029287;28;20112;-73
2022/01/24 03:01:43;;;;;;;34.67;20.60;;;;;;;4.53;75.64;103272.25;5029924;28;20044;-73
2022/01/24 03:04:09;;;;;;;35.92;21.85;;;;;;;4.54;75.24;103273.16;5029805;28;20109;-74
2022/01/24 03:06:34;;;;;;;36.33;21.42;;;;;;;4.52;76.58;103269.59;5027825;28;20098;-73
2022/01/24 03:09:00;;;;;;;32.38;20.25;;;;;;;4.52;76.34;103262.53;5028361;28;20316;-73
2022/01/24 03:11:27;;;;;;;38.22;22.30;;;;;;;4.54;76.07;103262.50;5028836;28;20057;-73
2022/01/24 03:13:53;;;;;;;34.40;20.75;;;;;;;4.52;76.29;103267.84;5029960;28;20029;-73
2022/01/24 03:16:19;;;;;;;34.92;21.23;;;;;;;4.50;76.00;103266.09;5029610;28;20492;-73
2022/01/24 03:18:44;;;;;;;32.58;19.73;;;;;;;4.50;76.42;103263.41;5029886;28;20112;-73
2022/01/24 03:21:09;;;;;;;33.50;19.75;;;;;;;4.50;76.22;103264.28;5028322;28;20397;-73
2022/01/24 03:23:35;;;;;;;34.42;21.27;;;;;;;4.50;76.88;103263.41;5029953;28;20073;-73
2022/01/24 03:26:00;;;;;;;32.30;18.70;;;;;;;4.48;76.81;103259.88;5029402;28;20064;-73
2022/01/24 03:28:26;;;;;;;34.53;21.15;;;;;;;4.48;78.03;103254.53;5030661;28;20039;-73
2022/01/24 03:30:52;;;;;;;33.33;19.63;;;;;;;4.46;77.26;103256.34;5034464;28;20192;-73
2022/01/24 03:33:17;;;;;;;35.92;20.70;;;;;;;4.42;77.40;103247.50;5048716;28;20079;-73
2022/01/24 03:35:43;;;;;;;34.33;19.30;;;;;;;4.42;77.87;103247.50;5031192;28;20407;-73
2022/01/24 03:38:10;;;;;;;33.08;19.15;;;;;;;4.39;76.83;103255.50;5040721;28;20393;-73
2022/01/24 03:40:35;;;;;;;34.53;20.08;;;;;;;4.40;77.61;103262.59;5028873;28;20056;-73
2022/01/24 03:43:00;;;;;;;34.03;21.30;;;;;;;4.43;77.91;103261.72;5040746;28;20029;-73
2022/01/24 03:45:42;;;;;;;32.15;19.88;;;;;;;4.42;76.90;103252.81;5036471;28;20036;-73
2022/01/24 03:48:11;;;;;;;33.38;19.27;;;;;;;4.40;76.42;103254.63;5008980;28;20030;-73
2022/01/24 03:50:38;;;;;;;33.83;19.13;;;;;;;4.38;77.08;103256.44;5022433;28;20061;-73
2022/01/24 03:53:04;;;;;;;39.22;20.85;;;;;;;4.38;78.20;103262.63;5027347;28;20025;-73
2022/01/24 03:55:31;;;;;;;39.05;21.90;;;;;;;4.37;77.08;103255.53;5029204;28;20040;-73
2022/01/24 03:57:56;;;;;;;34.72;20.15;;;;;;;4.34;76.38;103260.88;5028109;28;20033;-73
2022/01/24 04:00:21;;;;;;;35.22;20.67;;;;;;;4.34;77.37;103254.69;5031494;28;20128;-73
2022/01/24 04:02:47;;;;;;;33.95;20.45;;;;;;;4.35;76.94;103256.47;5041203;28;20044;-73
2022/01/24 04:05:12;;;;;;;36.67;21.02;;;;;;;4.33;76.88;103252.91;5028855;28;20037;-73
2022/01/24 04:07:38;;;;;;;37.28;21.00;;;;;;;4.34;76.58;103260.00;5026352;28;20098;-73
2022/01/24 04:10:08;;;;;;;35.80;20.67;;;;;;;4.35;77.46;103253.78;5027545;28;20132;-74
2022/01/24 04:12:39;;;;;;;34.42;19.50;;;;;;;4.34;76.32;103260.00;5030291;28;20053;-73
2022/01/24 04:15:13;;;;;;;35.60;20.92;;;;;;;4.31;76.51;103257.38;5025813;28;20446;-74
2022/01/24 04:17:43;;;;;;;35.08;21.58;;;;;;;4.30;76.79;103253.81;5026277;28;20040;-73
2022/01/24 04:22:56;;;;;;;34.65;20.83;;;;;;;4.29;77.93;103249.41;5043697;28;20090;-73
2022/01/24 04:25:23;;;;;;;38.55;22.08;;;;;;;4.29;78.12;103252.06;5026188;28;20436;-73
2022/01/24 04:27:50;;;;;;;35.28;22.33;;;;;;;4.29;76.85;103245.84;5034982;28;20032;-72
2022/01/24 04:30:16;;;;;;;36.20;23.00;;;;;;;4.28;78.06;103249.41;5034092;28;20071;-73
2022/01/24 04:32:41;;;;;;;33.80;20.30;;;;;;;4.28;77.48;103244.97;5042021;28;20040;-73
2022/01/24 04:35:07;;;;;;;36.00;21.55;;;;;;;4.29;77.47;103251.16;5042103;28;20369;-72
2022/01/24 04:37:32;;;;;;;35.88;21.48;;;;;;;4.29;77.25;103252.06;5038275;28;20109;-72
2022/01/24 04:39:58;;;;;;;32.88;20.13;;;;;;;4.27;76.71;103251.16;5028589;28;20041;-72
2022/01/24 04:42:33;;;;;;;35.95;21.13;;;;;;;4.27;77.48;103260.94;5036554;28;20401;-72
2022/01/24 04:50:41;;;;;;;32.92;19.67;;;;;;;4.20;77.96;103263.66;5031868;28;20101;-72
2022/01/24 04:53:32;;;;;;;32.85;20.48;;;;;;;4.19;77.22;103266.34;5008184;28;20765;-72
2022/01/24 04:55:55;;;;;;;37.25;21.27;;;;;;;4.18;78.73;103262.78;5042463;28;20148;-72
2022/01/24 04:58:20;;;;;;;35.15;21.00;;;;;;;4.14;78.92;103261.06;5037137;28;20108;-72
2022/01/24 05:00:45;;;;;;;35.88;20.73;;;;;;;4.17;78.61;103260.13;5026621;28;20033;-72
2022/01/24 05:03:11;;;;;;;36.70;20.85;;;;;;;4.16;78.46;103263.72;5041509;28;20044;-73
2022/01/24 05:05:36;;;;;;;37.22;21.13;;;;;;;4.17;77.93;103266.34;5036415;28;20155;-73
2022/01/24 05:08:04;;;;;;;34.60;20.45;;;;;;;4.18;77.78;103268.09;5029986;28;20021;-73
2022/01/24 05:10:37;;;;;;;35.30;19.95;;;;;;;4.18;77.18;103264.56;5043818;28;20445;-72
2022/01/24 05:23:54;;;;;;;34.08;20.27;;;;;;;4.14;77.20;103273.47;5031323;28;20124;-73
2022/01/24 05:26:20;;;;;;;36.33;21.38;;;;;;;4.15;76.94;103270.78;5028635;28;20545;-73
2022/01/24 05:28:45;;;;;;;32.92;20.33;;;;;;;4.13;76.10;103264.59;5029970;28;20029;-73
2022/01/24 05:31:10;;;;;;;35.70;19.88;;;;;;;4.14;76.64;103258.41;5033971;28;20039;-73
2022/01/24 05:33:35;;;;;;;33.20;19.50;;;;;;;4.12;76.26;103260.16;5037245;28;20029;-73
2022/01/24 05:36:01;;;;;;;32.80;20.15;;;;;;;4.11;76.27;103253.06;5043321;28;20227;-73
2022/01/24 05:38:26;;;;;;;36.60;19.85;;;;;;;4.12;76.10;103249.53;5028826;28;20030;-73
2022/01/24 05:40:52;;;;;;;34.38;18.98;;;;;;;4.10;76.76;103248.66;5030800;28;20589;-73
2022/01/24 05:43:18;;;;;;;36.13;20.30;;;;;;;4.09;77.08;103252.22;5031048;28;20044;-73
2022/01/24 05:45:43;;;;;;;32.53;19.17;;;;;;;4.10;76.43;103248.66;5019160;28;20030;-73
2022/01/24 05:48:09;;;;;;;32.88;19.58;;;;;;;4.07;76.06;103245.13;5028503;28;20026;-73
2022/01/24 05:50:34;;;;;;;36.78;19.40;;;;;;;4.08;76.44;103258.41;5035072;28;20409;-73
2022/01/24 05:53:00;;;;;;;31.48;19.50;;;;;;;4.06;76.55;103254.88;5027420;28;20025;-73
2022/01/24 05:55:25;;;;;;;33.55;19.40;;;;;;;4.06;76.74;103257.56;5043555;28;20040;-73
2022/01/24 05:57:53;;;;;;;33.85;19.02;;;;;;;4.05;76.42;103258.44;5030846;28;20901;-73
2022/01/24 06:00:19;;;;;;;31.63;18.40;;;;;;;4.05;76.60;103269.09;5034576;28;20079;-72
2022/01/24 06:02:45;;;;;;;30.08;17.38;;;;;;;4.05;76.10;103265.56;5031302;28;20037;-72
2022/01/24 06:05:10;;;;;;;31.35;19.33;;;;;;;4.03;76.23;103254.91;5030277;28;20034;-73
2022/01/24 06:07:35;;;;;;;31.85;18.67;;;;;;;4.04;76.14;103264.66;5030816;28;20450;-73
2022/01/24 06:10:01;;;;;;;32.20;18.95;;;;;;;4.01;77.03;103267.34;5029128;28;20099;-73
2022/01/24 06:12:27;;;;;;;35.45;19.10;;;;;;;4.02;77.29;103263.78;5027150;28;20127;-73
2022/01/24 06:14:52;;;;;;;31.13;17.25;;;;;;;4.00;77.15;103261.13;5029099;28;20124;-73
2022/01/24 06:17:17;;;;;;;30.85;17.55;;;;;;;3.98;77.01;103262.03;5028517;28;20057;-73
2022/01/24 06:19:44;;;;;;;31.63;18.08;;;;;;;3.99;77.22;103264.69;5029676;28;20078;-73
2022/01/24 06:22:09;;;;;;;31.98;18.50;;;;;;;3.98;76.79;103260.28;5030245;28;20454;-73
2022/01/24 06:24:35;;;;;;;32.45;18.30;;;;;;;3.98;77.42;103259.38;5029531;28;20099;-73
2022/01/24 06:27:00;;;;;;;33.95;17.95;;;;;;;3.96;77.20;103258.50;5028851;28;20633;-73
2022/01/24 06:29:25;;;;;;;29.52;17.02;;;;;;;3.95;77.62;103262.97;5029182;28;20021;-72
2022/01/24 06:31:51;;;;;;;30.75;16.83;;;;;;;3.95;77.18;103264.72;5031281;28;20029;-72
2022/01/24 06:34:16;;;;;;;32.53;17.45;;;;;;;3.94;77.75;103268.25;5031343;28;20034;-73
2022/01/24 06:36:41;;;;;;;32.40;18.65;;;;;;;3.92;77.06;103267.41;5037251;28;20533;-73
2022/01/24 06:39:07;;;;;;;32.13;18.00;;;;;;;3.92;77.32;103265.63;5040601;28;20036;-73
2022/01/24 06:41:34;;;;;;;31.70;17.73;;;;;;;3.90;77.84;103264.75;5034480;28;20474;-73
2022/01/24 06:44:02;;;;;;;30.38;18.50;;;;;;;3.89;77.90;103257.66;5029616;28;20407;-73
2022/01/24 06:46:28;;;;;;;32.90;19.02;;;;;;;3.91;77.96;103263.88;5026956;28;20041;-73
2022/01/24 06:48:53;;;;;;;31.33;17.25;;;;;;;3.90;77.27;103267.41;5024074;28;20604;-73
2022/01/24 06:51:19;;;;;;;31.10;17.08;;;;;;;3.91;77.15;103265.63;5022295;28;20365;-73
2022/01/24 06:53:44;;;;;;;32.65;17.20;;;;;;;3.90;77.33;103271.88;5037459;28;20025;-73
2022/01/24 06:56:10;;;;;;;32.72;17.67;;;;;;;3.88;76.96;103269.22;5040712;28;20029;-73
2022/01/24 06:58:36;;;;;;;32.20;16.48;;;;;;;3.88;77.05;103276.28;5029451;28;20116;-73
2022/01/24 07:01:03;;;;;;;32.78;15.82;;;;;;;3.87;77.45;103275.41;5029026;28;20060;-73
2022/01/24 07:03:28;;;;;;;32.30;16.95;;;;;;;3.85;77.18;103280.75;5040530;28;20044;-73
2022/01/24 07:05:53;;;;;;;32.22;17.20;;;;;;;3.83;77.13;103271.88;5034102;28;20369;-73
2022/01/24 07:08:19;;;;;;;31.13;17.05;;;;;;;3.83;77.50;103273.66;5038272;28;20017;-73
2022/01/24 07:10:44;;;;;;;32.40;17.15;;;;;;;3.83;77.18;103276.31;5027132;28;20530;-73
2022/01/24 07:13:10;;;;;;;29.48;16.38;;;;;;;3.81;77.22;103278.13;5030127;28;20088;-73
2022/01/24 07:15:43;;;;;;;29.98;16.55;;;;;;;3.80;77.28;103282.53;5026877;28;20094;-73
2022/01/24 07:18:57;;;;;;;35.05;18.38;;;;;;;3.77;77.40;103282.56;5029358;28;20410;-73
2022/01/24 07:20:59;;;;;;;29.77;16.42;;;;;;;3.78;77.13;103281.69;5028311;28;20764;-73
2022/01/24 07:23:25;;;;;;;33.20;17.40;;;;;;;3.75;77.69;103289.69;5026401;28;20029;-72
2022/01/24 07:25:51;;;;;;;31.60;17.77;;;;;;;3.76;76.81;103290.53;5028705;28;20113;-72
2022/01/24 07:28:17;;;;;;;32.75;16.40;;;;;;;3.75;77.35;103296.75;5021936;28;20056;-74
2022/01/24 07:30:43;;;;;;;37.88;18.52;;;;;;;3.73;78.04;103294.09;5023678;28;20045;-73
2022/01/24 07:33:08;;;;;;;33.63;18.17;;;;;;;3.73;77.37;103287.91;5031317;28;20035;-72
2022/01/24 07:35:34;;;;;;;31.58;16.40;;;;;;;3.74;77.61;103289.69;5021415;28;20037;-73
2022/01/24 07:37:59;;;;;;;30.33;16.27;;;;;;;3.76;78.04;103287.88;5023278;28;20083;-73
2022/01/24 07:40:25;;;;;;;30.98;18.73;;;;;;;3.75;77.46;103287.00;5041477;28;20029;-73
2022/01/24 07:43:08;;;;;;;32.13;17.20;;;;;;;3.75;77.79;103289.69;5028954;28;20025;-73
2022/01/24 07:45:35;;;;;;;34.17;18.40;;;;;;;3.74;77.31;103279.91;5018840;28;20091;-73
2022/01/24 07:48:01;;;;;;;30.20;16.75;;;;;;;3.74;76.82;103274.59;5026678;28;20029;-73
2022/01/24 07:50:26;;;;;;;33.58;17.38;;;;;;;3.75;77.38;103291.44;5027805;28;20052;-73
2022/01/24 07:52:52;;;;;;;34.28;18.10;;;;;;;3.73;77.81;103283.47;5027915;28;20025;-73
2022/01/24 07:55:18;;;;;;;30.00;16.75;;;;;;;3.74;78.07;103293.22;5028765;28;20033;-73
2022/01/24 07:57:43;;;;;;;30.73;17.15;;;;;;;3.73;77.26;103303.88;5029095;28;20037;-73
2022/01/24 08:00:10;;;;;;;30.73;17.98;;;;;;;3.72;77.17;103302.09;5027193;28;20446;-73
2022/01/24 08:02:36;;;;;;;33.25;17.48;;;;;;;3.74;77.73;103313.63;5033622;28;20032;-73
2022/01/24 08:05:02;;;;;;;32.00;18.02;;;;;;;3.74;76.75;103310.97;5027698;28;20021;-73
2022/01/24 08:07:27;;;;;;;33.00;18.50;;;;;;;3.74;77.06;103309.19;5033801;28;20392;-72
2022/01/24 08:09:52;;;;;;;33.17;18.70;;;;;;;3.74;77.37;103316.28;5040272;28;20433;-72
2022/01/24 08:12:18;;;;;;;33.45;18.70;;;;;;;3.77;77.19;103319.78;5029638;28;20057;-72
2022/01/24 08:14:43;;;;;;;39.97;19.83;;;;;;;3.78;77.58;103318.91;5023198;28;20342;-72
2022/01/24 08:17:09;;;;;;;34.22;18.95;;;;;;;3.80;77.11;103319.78;5025592;28;20448;-72
2022/01/24 08:19:34;;;;;;;31.55;19.25;;;;;;;3.82;76.96;103320.66;5025411;28;20025;-73
2022/01/24 08:21:59;;;;;;;33.05;19.40;;;;;;;3.83;76.82;103322.41;5023214;28;20029;-72
2022/01/24 08:24:25;;;;;;;34.38;18.75;;;;;;;3.85;77.29;103327.72;5025252;28;20040;-72
2022/01/24 08:26:50;;;;;;;35.25;20.15;;;;;;;3.85;78.22;103315.34;5024756;28;20405;-72
2022/01/24 08:29:15;;;;;;;35.10;18.70;;;;;;;3.85;76.37;103315.34;5025129;28;20044;-72
2022/01/24 08:31:41;;;;;;;31.67;18.75;;;;;;;3.88;75.87;103325.09;5024603;28;20428;-73
2022/01/24 08:34:06;;;;;;;31.55;18.73;;;;;;;3.89;76.75;103331.28;5029498;28;20921;-73
2022/01/24 08:36:31;;;;;;;33.88;18.30;;;;;;;3.90;76.50;103325.06;5023735;28;20029;-73
2022/01/24 08:39:04;;;;;;;33.47;20.20;;;;;;;3.87;75.14;103322.44;5025056;28;20458;-73
2022/01/24 08:41:40;;;;;;;35.90;20.33;;;;;;;3.86;75.67;103324.19;5024508;28;20040;-73
2022/01/24 08:45:40;;;;;;;38.80;21.40;;;;;;;3.87;74.96;103319.78;5025422;28;20118;-72
2022/01/24 08:47:06;;;;;;;31.58;18.83;;;;;;;3.87;75.50;103322.44;5025884;28;20489;-72
2022/01/24 08:49:31;;;;;;;35.88;20.08;;;;;;;3.88;75.76;103324.19;5023957;28;20289;-74
2022/01/24 08:51:58;;;;;;;31.55;17.70;;;;;;;3.92;75.57;103323.28;5025521;28;20025;-75
2022/01/24 08:54:24;;;;;;;33.95;18.55;;;;;;;3.98;75.86;103329.47;5023804;28;20040;-74
2022/01/24 08:56:49;;;;;;;33.35;19.67;;;;;;;4.04;75.56;103333.84;5024472;28;20025;-75
2022/01/24 08:59:14;;;;;;;32.17;17.08;;;;;;;4.10;75.52;103331.16;5026167;28;20075;-75
2022/01/24 09:01:40;;;;;;;34.13;19.25;;;;;;;4.15;75.48;103326.69;5025245;28;20056;-75
2022/01/24 09:04:05;;;;;;;35.47;19.00;;;;;;;4.18;74.87;103328.44;5024293;28;20381;-75
2022/01/24 09:06:30;;;;;;;32.13;19.17;;;;;;;4.22;74.22;103327.53;5023428;28;20045;-75
2022/01/24 09:09:00;;;;;;;34.33;19.30;;;;;;;4.21;73.87;103333.75;5023959;28;20029;-75
2022/01/24 09:11:30;;;;;;;33.08;19.45;;;;;;;4.19;74.39;103335.53;5024997;28;20131;-73
2022/01/24 09:13:56;;;;;;;32.08;17.13;;;;;;;4.17;73.81;103332.91;5025616;28;20029;-74
2022/01/24 09:16:22;;;;;;;31.50;17.30;;;;;;;4.16;74.01;103333.78;5023625;28;20033;-73
2022/01/24 09:18:47;;;;;;;33.65;19.58;;;;;;;4.11;74.22;103335.56;5035680;28;20029;-73
2022/01/24 09:21:13;;;;;;;33.45;17.88;;;;;;;4.10;74.57;103336.47;5029160;28;20029;-73
2022/01/24 09:23:38;;;;;;;36.13;19.92;;;;;;;4.12;74.40;103339.13;5023377;28;20063;-73
2022/01/24 09:26:04;;;;;;;33.60;19.08;;;;;;;4.11;74.39;103346.22;5022319;28;20427;-73
2022/01/24 09:28:29;;;;;;;32.15;19.33;;;;;;;4.07;74.55;103341.81;5024016;28;20014;-73
2022/01/24 09:30:55;;;;;;;33.92;18.98;;;;;;;4.10;74.41;103341.81;5026062;28;20029;-73
2022/01/24 09:33:20;;;;;;;32.72;18.90;;;;;;;4.08;74.36;103332.94;5043894;28;20123;-73
2022/01/24 09:35:45;;;;;;;33.28;17.98;;;;;;;4.08;74.58;103327.59;5028210;28;20642;-72
2022/01/24 09:38:12;;;;;;;32.25;17.65;;;;;;;4.09;74.37;103328.50;5024748;28;20040;-72
2022/01/24 09:40:38;;;;;;;33.78;17.90;;;;;;;4.09;74.08;103328.50;5023700;28;20509;-72
2022/01/24 09:43:04;;;;;;;32.97;17.50;;;;;;;4.07;73.76;103325.88;5025089;28;20036;-72
2022/01/24 09:45:30;;;;;;;29.05;16.02;;;;;;;4.09;73.78;103333.84;5027783;28;20086;-72
2022/01/24 09:47:57;;;;;;;32.05;17.45;;;;;;;4.10;73.32;103338.25;5024665;28;20109;-72
2022/01/24 09:50:22;;;;;;;33.10;18.65;;;;;;;4.10;73.73;103325.84;5027117;28;20033;-72
2022/01/24 09:52:50;;;;;;;33.50;17.23;;;;;;;4.10;73.86;103331.16;5028563;28;20127;-72
2022/01/24 09:55:17;;;;;;;33.30;18.42;;;;;;;4.11;74.17;103334.69;5029232;28;20035;-72
2022/01/24 09:57:43;;;;;;;33.28;17.77;;;;;;;4.13;73.77;103328.47;5027833;28;20038;-72
2022/01/24 10:00:12;;;;;;;32.97;17.52;;;;;;;4.13;72.87;103324.91;5029003;28;20539;-73
2022/01/24 10:02:38;;;;;;;28.65;16.02;;;;;;;4.14;72.95;103326.69;5026206;28;20037;-73
2022/01/24 10:05:22;;;;;;;31.77;16.48;;;;;;;4.15;73.75;103324.00;5029214;28;20469;-73
2022/01/24 10:07:58;;;;;;;31.30;17.27;;;;;;;4.16;72.86;103336.44;5022201;28;20028;-73
2022/01/24 10:10:39;;;;;;;33.65;16.33;;;;;;;4.16;73.74;103330.25;5026890;28;20030;-73
2022/01/24 10:16:30;;;;;;;33.65;16.30;;;;;;;4.16;72.80;103327.59;5011429;28;20076;-73
2022/01/24 10:19:16;;;;;;;32.00;17.70;;;;;;;4.17;73.72;103327.56;5018976;28;20037;-73
2022/01/24 10:21:49;;;;;;;31.13;17.45;;;;;;;4.16;73.78;103328.44;5002797;28;20475;-73
2022/01/24 10:24:26;;;;;;;29.65;16.40;;;;;;;4.24;74.32;103332.84;4987505;28;20123;-72
2022/01/24 10:27:25;;;;;;;35.28;18.30;;;;;;;4.29;73.59;103331.94;5032544;28;20436;-74
2022/01/24 10:30:03;;;;;;;30.20;15.73;;;;;;;4.25;72.38;103327.50;4940973;28;20045;-75
2022/01/24 10:32:41;;;;;;;33.13;15.77;;;;;;;4.24;73.61;103330.19;5007788;28;20293;-75
2022/01/24 10:35:44;;;;;;;27.90;15.20;;;;;;;4.23;72.36;103323.09;5010954;28;20117;-75
2022/01/24 10:38:24;;;;;;;30.02;16.13;;;;;;;4.22;73.01;103329.28;4999363;28;20049;-74
2022/01/24 10:40:56;;;;;;;30.80;16.23;;;;;;;4.25;72.88;103323.97;4987324;28;20496;-74
2022/01/24 10:43:25;;;;;;;33.97;17.17;;;;;;;4.29;73.37;103326.59;5005569;28;20037;-75
2022/01/24 10:45:53;;;;;;;30.35;16.27;;;;;;;4.32;72.82;103315.94;4989844;28;20405;-75
2022/01/24 10:48:39;;;;;;;31.17;16.88;;;;;;;4.36;73.26;103300.78;5003098;28;20559;-74
2022/01/24 10:51:13;;;;;;;31.05;16.80;;;;;;;4.38;72.58;103309.69;5013622;28;20045;-74
2022/01/24 10:53:51;;;;;;;31.40;16.80;;;;;;;4.38;72.86;103307.00;5019228;28;20029;-74
2022/01/24 10:56:38;;;;;;;33.47;17.52;;;;;;;4.40;72.73;103307.88;5025274;28;20040;-74
2022/01/24 10:59:06;;;;;;;28.65;15.30;;;;;;;4.39;70.92;103308.75;5021461;28;20076;-74
2022/01/24 11:01:32;;;;;;;30.27;16.10;;;;;;;4.37;71.37;103308.78;5017931;28;20396;-74
2022/01/24 11:04:10;;;;;;;32.28;15.80;;;;;;;4.33;71.57;103307.06;5022990;28;20029;-75
2022/01/24 11:06:39;;;;;;;32.03;17.95;;;;;;;4.31;70.86;103313.28;5028108;28;20410;-75
2022/01/24 11:09:28;;;;;;;32.13;17.63;;;;;;;4.36;72.10;103301.69;5026372;28;20029;-74
2022/01/24 11:12:15;;;;;;;33.38;18.20;;;;;;;4.38;71.83;103302.56;5027411;28;20123;-74
2022/01/24 11:14:43;;;;;;;32.08;17.08;;;;;;;4.36;70.36;103301.69;5028410;28;20048;-74
2022/01/24 11:17:14;;;;;;;31.92;17.88;;;;;;;4.37;70.64;103297.25;5025547;28;20394;-74
2022/01/24 11:19:50;;;;;;;30.10;15.52;;;;;;;4.40;70.97;103299.88;5025889;28;20116;-74
2022/01/24 11:22:20;;;;;;;31.67;17.83;;;;;;;4.41;70.88;103304.31;5023749;28;20025;-74
2022/01/24 11:24:53;;;;;;;32.40;17.88;;;;;;;4.40;70.00;103307.88;5026270;28;20426;-74
2022/01/24 11:27:19;;;;;;;31.25;17.48;;;;;;;4.30;69.77;103299.06;5030953;28;20033;-74
2022/01/24 11:29:45;;;;;;;34.10;17.88;;;;;;;4.25;70.47;103302.69;5031215;28;20477;-74
2022/01/24 11:32:19;;;;;;;32.55;17.42;;;;;;;4.22;70.62;103297.34;5027376;28;20029;-73
2022/01/24 11:34:50;;;;;;;36.88;19.83;;;;;;;4.19;70.52;103293.81;5023014;28;20410;-74
2022/01/24 11:37:36;;;;;;;34.22;19.23;;;;;;;4.23;71.97;103288.47;5023264;28;20065;-74
2022/01/24 11:40:13;;;;;;;35.15;20.67;;;;;;;4.29;72.35;103293.75;5032012;28;20032;-73
2022/01/24 11:42:40;;;;;;;33.85;18.42;;;;;;;4.31;70.71;103297.31;5023187;28;20040;-74
2022/01/24 11:45:13;;;;;;;32.20;16.75;;;;;;;4.34;70.18;103295.47;5027699;28;20513;-74
2022/01/24 11:47:39;;;;;;;33.38;19.13;;;;;;;4.35;70.56;103291.06;5023526;28;20017;-74
2022/01/24 11:50:31;;;;;;;30.85;17.25;;;;;;;4.39;71.33;103284.78;5022471;28;20033;-75
2022/01/24 11:52:57;;;;;;;35.38;18.45;;;;;;;4.39;71.02;103284.78;5029522;28;20036;-74
2022/01/24 11:55:36;;;;;;;30.73;16.05;;;;;;;4.38;71.95;103277.72;5025894;28;20485;-74
2022/01/24 11:58:05;;;;;;;34.47;18.27;;;;;;;4.40;71.52;103283.03;5025601;28;20029;-74
2022/01/24 12:00:40;;;;;;;32.13;19.15;;;;;;;4.43;71.69;103281.22;5025761;28;20083;-74
2022/01/24 12:03:17;;;;;;;34.72;19.83;;;;;;;4.44;70.79;103274.13;5045171;28;20116;-74
2022/01/24 12:05:56;;;;;;;32.28;17.98;;;;;;;4.41;69.83;103272.38;5021601;28;20029;-74
2022/01/24 12:08:35;;;;;;;32.60;18.27;;;;;;;4.41;70.95;103266.13;5024726;28;20021;-74
2022/01/24 12:11:12;;;;;;;36.15;20.65;;;;;;;4.41;70.41;103259.06;5018231;28;20480;-74
2022/01/24 12:13:44;;;;;;;34.33;19.35;;;;;;;4.37;70.06;103263.50;5024797;28;20390;-74
2022/01/24 12:16:11;;;;;;;32.45;19.65;;;;;;;4.38;69.87;103261.75;5027753;28;21141;-74
2022/01/24 12:18:36;;;;;;;32.00;18.95;;;;;;;4.40;70.25;103259.06;5025490;28;20112;-74
2022/01/24 12:21:03;;;;;;;35.28;20.58;;;;;;;4.43;70.44;103259.03;5026135;28;20743;-74
2022/01/24 12:23:32;;;;;;;32.10;20.55;;;;;;;4.48;71.67;103260.78;5026287;28;20409;-73
2022/01/24 12:26:02;;;;;;;33.33;19.77;;;;;;;4.52;71.04;103261.63;5027495;28;20055;-74
2022/01/24 12:28:42;;;;;;;33.45;20.77;;;;;;;4.54;70.69;103260.72;5024546;28;20647;-74
2022/01/24 12:31:22;;;;;;;34.72;18.73;;;;;;;4.60;71.10;103248.22;5027037;28;20572;-74
2022/01/24 12:33:53;;;;;;;36.58;19.42;;;;;;;4.62;70.12;103254.44;5024572;28;20126;-74
2022/01/24 12:36:48;;;;;;;34.33;19.10;;;;;;;4.64;70.97;103249.97;5024240;28;20120;-74
2022/01/24 12:39:25;;;;;;;35.95;18.65;;;;;;;4.66;70.44;103257.03;5024356;28;20651;-74
2022/01/24 12:42:01;;;;;;;32.95;19.17;;;;;;;4.64;69.72;103255.28;5025040;28;20026;-74
2022/01/24 12:47:05;;;;;;;31.42;17.90;;;;;;;4.57;69.20;103240.25;5025968;28;20041;-74